Back to Top

Language: 

My Weather Underground Personal Weather Station Historical Data with Graphs...

Delerius Weather Station Historical Data
Daily Summary for January 25, 2018 Units:  English    Metric   Both
« Previous Day
Next Day »
Daily Weekly Monthly Yearly Custom
  High: Low: Average:
Temperature: 47.1 °F 35.2 °F 42.7 °F
Dew Point: 39.6 °F 33.1 °F 37.9 °F
Humidity: 93 % 73 % 83 %
Wind Speed: 18.0 mph 0.0 mph 8.3 mph
Wind Gust: 31.0 mph - -
Wind:- - SW
Pressure: 29.75 in 29.55 in -
Precipitation: 0.01 in    
Historical Graphs
 
 
Tabular Data for January 25, 2018
Time Temperature Dew Point Pressure Wind Wind Speed Wind Gust Humidity Rainfall Rate (Hourly) solar Conditions
00:00 43.3 °F 38.2 °F 29.55 in SW 16.0 mph 24.0 mph 82 % 0.00 in 0 W/m2
00:05 43.3 °F 38.2 °F 29.56 in WSW 14.0 mph 23.0 mph 82 % 0.00 in 0 W/m2
00:10 43.3 °F 38.2 °F 29.55 in SW 14.0 mph 20.0 mph 82 % 0.00 in 0 W/m2
00:15 43.3 °F 38.5 °F 29.56 in SW 11.0 mph 14.0 mph 83 % 0.00 in 0 W/m2
00:20 43.3 °F 38.5 °F 29.56 in SW 15.0 mph 23.0 mph 83 % 0.00 in 0 W/m2
00:25 43.3 °F 38.5 °F 29.55 in SW 13.0 mph 21.0 mph 83 % 0.00 in 0 W/m2
00:30 43.3 °F 38.5 °F 29.55 in SW 10.0 mph 16.0 mph 83 % 0.00 in 0 W/m2
00:35 43.2 °F 38.3 °F 29.55 in SW 13.0 mph 19.0 mph 83 % 0.00 in 0 W/m2
00:40 43.2 °F 38.3 °F 29.56 in SW 13.0 mph 20.0 mph 83 % 0.00 in 0 W/m2
00:45 43.3 °F 38.5 °F 29.56 in SW 15.0 mph 24.0 mph 83 % 0.00 in 0 W/m2
00:50 43.3 °F 38.2 °F 29.56 in SW 13.0 mph 16.0 mph 82 % 0.00 in 0 W/m2
00:55 43.5 °F 38.4 °F 29.56 in WSW 15.0 mph 23.0 mph 82 % 0.00 in 0 W/m2
01:00 43.5 °F 38.4 °F 29.56 in SW 13.0 mph 21.0 mph 82 % 0.00 in 0 W/m2
01:06 43.5 °F 38.4 °F 29.56 in SW 14.0 mph 25.0 mph 82 % 0.00 in 0 W/m2
01:11 43.5 °F 38.7 °F 29.56 in SW 15.0 mph 22.0 mph 83 % 0.00 in 0 W/m2
01:15 43.3 °F 38.8 °F 29.56 in SW 17.0 mph 31.0 mph 84 % 0.00 in 0 W/m2
01:21 43.5 °F 39.0 °F 29.57 in SW 17.0 mph 27.0 mph 84 % 0.00 in 0 W/m2
01:26 43.5 °F 39.0 °F 29.57 in WSW 17.0 mph 26.0 mph 84 % 0.00 in 0 W/m2
01:31 43.5 °F 39.0 °F 29.57 in WSW 14.0 mph 24.0 mph 84 % 0.00 in 0 W/m2
01:36 43.5 °F 38.7 °F 29.58 in SW 13.0 mph 21.0 mph 83 % 0.00 in 0 W/m2
01:41 43.3 °F 38.5 °F 29.57 in SW 14.0 mph 25.0 mph 83 % 0.01 in 0 W/m2
01:46 43.0 °F 38.5 °F 29.56 in WSW 12.0 mph 20.0 mph 84 % 0.01 in 0 W/m2
01:51 42.6 °F 38.1 °F 29.56 in SW 12.0 mph 19.0 mph 84 % 0.01 in 0 W/m2
01:56 42.6 °F 38.1 °F 29.56 in WSW 15.0 mph 22.0 mph 84 % 0.01 in 0 W/m2
02:01 42.6 °F 38.1 °F 29.56 in WSW 12.0 mph 19.0 mph 84 % 0.01 in 0 W/m2
02:06 42.4 °F 37.9 °F 29.56 in WSW 13.0 mph 23.0 mph 84 % 0.01 in 0 W/m2
02:11 42.4 °F 37.9 °F 29.56 in SW 11.0 mph 16.0 mph 84 % 0.01 in 0 W/m2
02:16 42.4 °F 37.9 °F 29.56 in WSW 11.0 mph 20.0 mph 84 % 0.01 in 0 W/m2
02:21 42.4 °F 37.9 °F 29.56 in WSW 13.0 mph 24.0 mph 84 % 0.01 in 0 W/m2
02:26 42.4 °F 37.9 °F 29.56 in SW 13.0 mph 20.0 mph 84 % 0.01 in 0 W/m2
02:31 42.4 °F 37.9 °F 29.56 in WSW 13.0 mph 21.0 mph 84 % 0.01 in 0 W/m2
02:36 42.4 °F 37.9 °F 29.56 in SW 13.0 mph 27.0 mph 84 % 0.01 in 0 W/m2
02:41 42.4 °F 37.9 °F 29.56 in SW 13.0 mph 21.0 mph 84 % 0.00 in 0 W/m2
02:46 42.6 °F 37.8 °F 29.56 in WSW 16.0 mph 24.0 mph 83 % 0.00 in 0 W/m2
02:51 42.8 °F 38.0 °F 29.56 in SW 15.0 mph 22.0 mph 83 % 0.00 in 0 W/m2
02:56 43.0 °F 37.9 °F 29.56 in SW 13.0 mph 25.0 mph 82 % 0.00 in 0 W/m2
03:01 43.0 °F 37.9 °F 29.56 in WSW 13.0 mph 21.0 mph 82 % 0.00 in 0 W/m2
03:06 43.0 °F 37.9 °F 29.57 in WSW 14.0 mph 21.0 mph 82 % 0.00 in 0 W/m2
03:11 43.2 °F 37.7 °F 29.57 in WSW 15.0 mph 24.0 mph 81 % 0.00 in 0 W/m2
03:16 43.3 °F 37.9 °F 29.57 in WSW 12.0 mph 21.0 mph 81 % 0.00 in 0 W/m2
03:21 43.3 °F 37.9 °F 29.57 in WSW 16.0 mph 26.0 mph 81 % 0.00 in 0 W/m2
03:26 43.3 °F 37.9 °F 29.56 in WSW 13.0 mph 24.0 mph 81 % 0.00 in 0 W/m2
03:31 43.2 °F 37.7 °F 29.56 in SW 9.0 mph 15.0 mph 81 % 0.00 in 0 W/m2
03:36 43.0 °F 37.5 °F 29.56 in SW 10.0 mph 16.0 mph 81 % 0.00 in 0 W/m2
03:41 43.0 °F 37.9 °F 29.56 in SW 13.0 mph 19.0 mph 82 % 0.00 in 0 W/m2
03:46 43.0 °F 37.9 °F 29.56 in WSW 12.0 mph 20.0 mph 82 % 0.00 in 0 W/m2
03:51 43.0 °F 37.9 °F 29.56 in WSW 14.0 mph 22.0 mph 82 % 0.00 in 0 W/m2
03:56 43.2 °F 38.3 °F 29.56 in SW 15.0 mph 24.0 mph 83 % 0.00 in 0 W/m2
04:01 43.3 °F 38.2 °F 29.56 in SW 17.0 mph 24.0 mph 82 % 0.00 in 0 W/m2
04:06 43.3 °F 38.2 °F 29.56 in SW 13.0 mph 21.0 mph 82 % 0.00 in 0 W/m2
04:11 43.5 °F 38.4 °F 29.56 in SW 16.0 mph 26.0 mph 82 % 0.00 in 0 W/m2
04:16 43.5 °F 38.1 °F 29.56 in SW 15.0 mph 22.0 mph 81 % 0.00 in 0 W/m2
04:21 43.5 °F 37.8 °F 29.56 in SW 13.0 mph 19.0 mph 80 % 0.00 in 0 W/m2
04:26 43.3 °F 37.9 °F 29.56 in SW 13.0 mph 22.0 mph 81 % 0.00 in 0 W/m2
04:31 43.3 °F 38.2 °F 29.56 in SW 15.0 mph 25.0 mph 82 % 0.00 in 0 W/m2
04:36 43.2 °F 38.0 °F 29.56 in SW 14.0 mph 20.0 mph 82 % 0.00 in 0 W/m2
04:41 43.2 °F 38.0 °F 29.56 in SW 12.0 mph 21.0 mph 82 % 0.00 in 0 W/m2
04:46 43.0 °F 37.9 °F 29.56 in SW 13.0 mph 21.0 mph 82 % 0.00 in 0 W/m2
04:51 43.0 °F 37.9 °F 29.56 in SW 12.0 mph 20.0 mph 82 % 0.00 in 0 W/m2
04:56 42.8 °F 37.7 °F 29.56 in SW 11.0 mph 20.0 mph 82 % 0.00 in 0 W/m2
05:01 42.6 °F 37.5 °F 29.56 in SW 12.0 mph 20.0 mph 82 % 0.00 in 0 W/m2
05:06 42.6 °F 37.5 °F 29.57 in SW 12.0 mph 19.0 mph 82 % 0.00 in 0 W/m2
05:11 42.4 °F 37.3 °F 29.57 in SW 11.0 mph 16.0 mph 82 % 0.00 in 0 W/m2
05:16 42.4 °F 37.3 °F 29.57 in WSW 12.0 mph 21.0 mph 82 % 0.00 in 0 W/m2
05:21 42.3 °F 37.2 °F 29.57 in WSW 13.0 mph 21.0 mph 82 % 0.00 in 0 W/m2
05:26 42.3 °F 37.5 °F 29.57 in WSW 15.0 mph 21.0 mph 83 % 0.00 in 0 W/m2
05:31 42.3 °F 37.5 °F 29.57 in SW 14.0 mph 21.0 mph 83 % 0.00 in 0 W/m2
05:36 42.3 °F 37.5 °F 29.58 in WSW 12.0 mph 20.0 mph 83 % 0.00 in 0 W/m2
05:41 42.3 °F 37.8 °F 29.58 in SW 11.0 mph 16.0 mph 84 % 0.00 in 0 W/m2
05:46 42.3 °F 37.8 °F 29.57 in SW 10.0 mph 14.0 mph 84 % 0.00 in 0 W/m2
05:52 42.1 °F 37.6 °F 29.58 in SW 8.0 mph 12.0 mph 84 % 0.00 in 0 W/m2
05:56 42.1 °F 37.6 °F 29.58 in SW 7.0 mph 12.0 mph 84 % 0.00 in 0 W/m2
06:02 42.1 °F 37.6 °F 29.58 in SW 7.0 mph 10.0 mph 84 % 0.00 in 0 W/m2
06:07 41.9 °F 37.4 °F 29.58 in SW 8.0 mph 12.0 mph 84 % 0.00 in 0 W/m2
06:12 41.9 °F 37.4 °F 29.58 in SW 9.0 mph 12.0 mph 84 % 0.00 in 0 W/m2
06:17 41.9 °F 37.4 °F 29.58 in SW 9.0 mph 14.0 mph 84 % 0.00 in 0 W/m2
06:22 41.9 °F 37.4 °F 29.58 in SW 9.0 mph 18.0 mph 84 % 0.00 in 0 W/m2
06:27 41.9 °F 37.4 °F 29.58 in SW 9.0 mph 16.0 mph 84 % 0.00 in 0 W/m2
06:32 41.7 °F 37.2 °F 29.58 in SW 11.0 mph 18.0 mph 84 % 0.00 in 0 W/m2
06:37 41.7 °F 36.9 °F 29.58 in SW 13.0 mph 19.0 mph 83 % 0.00 in 0 W/m2
06:42 41.7 °F 36.9 °F 29.58 in SW 11.0 mph 20.0 mph 83 % 0.00 in 0 W/m2
06:47 41.7 °F 36.9 °F 29.58 in SW 12.0 mph 20.0 mph 83 % 0.00 in 0 W/m2
06:52 41.5 °F 36.8 °F 29.57 in SW 12.0 mph 20.0 mph 83 % 0.00 in 0 W/m2
06:57 41.5 °F 36.8 °F 29.58 in SW 13.0 mph 18.0 mph 83 % 0.00 in 0 W/m2
07:02 41.5 °F 36.8 °F 29.58 in SW 11.0 mph 16.0 mph 83 % 0.00 in 0 W/m2
07:07 41.5 °F 36.8 °F 29.58 in SW 9.0 mph 15.0 mph 83 % 0.00 in 0 W/m2
07:12 41.4 °F 36.6 °F 29.58 in SW 12.0 mph 18.0 mph 83 % 0.00 in 0 W/m2
07:17 41.4 °F 36.6 °F 29.58 in SW 10.0 mph 19.0 mph 83 % 0.00 in 0 W/m2
07:22 41.4 °F 36.6 °F 29.58 in SW 9.0 mph 18.0 mph 83 % 0.00 in 0 W/m2
07:27 41.4 °F 36.9 °F 29.58 in SW 10.0 mph 19.0 mph 84 % 0.00 in 0 W/m2
07:32 41.5 °F 36.8 °F 29.58 in SW 9.0 mph 14.0 mph 83 % 0.00 in 0 W/m2
07:37 41.4 °F 36.9 °F 29.58 in SW 12.0 mph 21.0 mph 84 % 0.00 in 0 W/m2
07:42 41.4 °F 36.9 °F 29.58 in SW 7.0 mph 13.0 mph 84 % 0.00 in 0 W/m2
07:47 41.2 °F 36.7 °F 29.58 in SW 8.0 mph 11.0 mph 84 % 0.00 in 0 W/m2
07:52 41.0 °F 36.5 °F 29.58 in SW 6.0 mph 12.0 mph 84 % 0.00 in 0 W/m2
07:57 40.8 °F 36.7 °F 29.58 in SSW 9.0 mph 15.0 mph 85 % 0.00 in 0 W/m2
08:02 40.8 °F 36.7 °F 29.58 in SW 7.0 mph 14.0 mph 85 % 0.00 in 5 W/m2
08:07 40.8 °F 36.7 °F 29.58 in SW 10.0 mph 15.0 mph 85 % 0.00 in 7 W/m2
08:12 40.8 °F 36.4 °F 29.58 in SW 8.0 mph 13.0 mph 84 % 0.00 in 11 W/m2
08:17 41.0 °F 36.5 °F 29.58 in SW 9.0 mph 13.0 mph 84 % 0.00 in 14 W/m2
08:22 41.2 °F 36.7 °F 29.58 in SW 12.0 mph 21.0 mph 84 % 0.00 in 21 W/m2
08:27 41.4 °F 36.9 °F 29.58 in SW 10.0 mph 14.0 mph 84 % 0.00 in 25 W/m2
08:32 41.4 °F 36.9 °F 29.58 in SW 8.0 mph 12.0 mph 84 % 0.00 in 28 W/m2
08:37 41.4 °F 36.9 °F 29.58 in SW 10.0 mph 18.0 mph 84 % 0.00 in 30 W/m2
08:42 41.5 °F 36.8 °F 29.58 in WSW 10.0 mph 18.0 mph 83 % 0.00 in 33 W/m2
08:47 41.5 °F 37.1 °F 29.58 in SW 7.0 mph 10.0 mph 84 % 0.00 in 30 W/m2
08:52 41.5 °F 37.1 °F 29.58 in SW 8.0 mph 12.0 mph 84 % 0.00 in 28 W/m2
08:57 41.5 °F 37.1 °F 29.58 in SW 13.0 mph 23.0 mph 84 % 0.00 in 30 W/m2
09:02 41.7 °F 37.2 °F 29.58 in SW 6.0 mph 11.0 mph 84 % 0.00 in 32 W/m2
09:07 41.7 °F 37.2 °F 29.58 in WSW 6.0 mph 10.0 mph 84 % 0.00 in 30 W/m2
09:13 41.9 °F 37.4 °F 29.58 in SW 8.0 mph 12.0 mph 84 % 0.00 in 30 W/m2
09:17 41.9 °F 37.4 °F 29.58 in SW 7.0 mph 12.0 mph 84 % 0.00 in 33 W/m2
09:23 42.1 °F 37.3 °F 29.58 in WSW 9.0 mph 18.0 mph 83 % 0.00 in 35 W/m2
09:28 42.1 °F 37.3 °F 29.58 in SW 9.0 mph 13.0 mph 83 % 0.00 in 40 W/m2
09:33 42.3 °F 37.5 °F 29.59 in SW 9.0 mph 16.0 mph 83 % 0.00 in 151 W/m2
09:38 42.4 °F 37.6 °F 29.59 in SW 11.0 mph 16.0 mph 83 % 0.00 in 155 W/m2
09:43 42.8 °F 38.0 °F 29.59 in SW 7.0 mph 15.0 mph 83 % 0.00 in 171 W/m2
09:48 43.0 °F 37.9 °F 29.59 in SW 11.0 mph 19.0 mph 82 % 0.00 in 176 W/m2
09:53 43.2 °F 37.7 °F 29.59 in SW 10.0 mph 16.0 mph 81 % 0.00 in 193 W/m2
09:58 43.3 °F 37.9 °F 29.60 in SW 7.0 mph 13.0 mph 81 % 0.00 in 218 W/m2
10:03 43.5 °F 38.1 °F 29.59 in WSW 9.0 mph 14.0 mph 81 % 0.00 in 234 W/m2
10:08 43.7 °F 37.9 °F 29.60 in SW 7.0 mph 12.0 mph 80 % 0.00 in 250 W/m2
10:13 44.1 °F 38.3 °F 29.60 in WSW 11.0 mph 16.0 mph 80 % 0.00 in 271 W/m2
10:18 44.2 °F 38.5 °F 29.59 in SW 10.0 mph 20.0 mph 80 % 0.00 in 287 W/m2
10:23 44.4 °F 38.3 °F 29.59 in SW 13.0 mph 22.0 mph 79 % 0.00 in 304 W/m2
10:28 44.6 °F 38.5 °F 29.60 in SW 11.0 mph 21.0 mph 79 % 0.00 in 278 W/m2
10:33 44.8 °F 38.7 °F 29.59 in SW 5.0 mph 10.0 mph 79 % 0.00 in 287 W/m2
10:38 45.1 °F 39.0 °F 29.59 in SSW 6.0 mph 11.0 mph 79 % 0.00 in 264 W/m2
10:43 45.3 °F 38.9 °F 29.60 in SSW 6.0 mph 13.0 mph 78 % 0.00 in 297 W/m2
10:48 45.3 °F 38.9 °F 29.60 in WSW 10.0 mph 16.0 mph 78 % 0.00 in 330 W/m2
10:53 45.7 °F 38.9 °F 29.60 in SW 8.0 mph 16.0 mph 77 % 0.00 in 364 W/m2
10:58 45.9 °F 39.1 °F 29.60 in SSW 11.0 mph 18.0 mph 77 % 0.00 in 244 W/m2
11:03 45.9 °F 39.1 °F 29.60 in SW 12.0 mph 19.0 mph 77 % 0.00 in 271 W/m2
11:08 45.9 °F 39.1 °F 29.59 in SW 15.0 mph 22.0 mph 77 % 0.00 in 353 W/m2
11:13 46.0 °F 39.2 °F 29.59 in WSW 14.0 mph 22.0 mph 77 % 0.00 in 383 W/m2
11:18 46.4 °F 39.2 °F 29.59 in SW 13.0 mph 21.0 mph 76 % 0.00 in 408 W/m2
11:23 46.6 °F 39.1 °F 29.59 in SW 11.0 mph 21.0 mph 75 % 0.00 in 311 W/m2
11:28 46.6 °F 39.1 °F 29.59 in SW 15.0 mph 26.0 mph 75 % 0.00 in 77 W/m2
11:33 46.2 °F 38.7 °F 29.59 in SW 14.0 mph 21.0 mph 75 % 0.00 in 104 W/m2
11:38 46.0 °F 38.9 °F 29.59 in SW 12.0 mph 18.0 mph 76 % 0.00 in 327 W/m2
11:43 46.2 °F 39.1 °F 29.59 in SW 10.0 mph 18.0 mph 76 % 0.00 in 332 W/m2
11:48 46.4 °F 38.9 °F 29.59 in SW 15.0 mph 23.0 mph 75 % 0.00 in 338 W/m2
11:53 46.6 °F 39.1 °F 29.59 in SW 9.0 mph 14.0 mph 75 % 0.00 in 325 W/m2
11:58 46.8 °F 39.3 °F 29.59 in SW 10.0 mph 15.0 mph 75 % 0.00 in 332 W/m2
12:03 46.8 °F 38.9 °F 29.59 in SW 14.0 mph 21.0 mph 74 % 0.00 in 315 W/m2
12:08 46.8 °F 39.3 °F 29.59 in SSW 13.0 mph 19.0 mph 75 % 0.00 in 346 W/m2
12:14 46.8 °F 38.9 °F 29.59 in SW 11.0 mph 21.0 mph 74 % 0.00 in 336 W/m2
12:19 46.9 °F 39.1 °F 29.59 in SSW 11.0 mph 18.0 mph 74 % 0.00 in 378 W/m2
12:24 47.1 °F 39.6 °F 29.60 in SSW 10.0 mph 18.0 mph 75 % 0.00 in 381 W/m2
12:29 47.1 °F 39.3 °F 29.61 in SW 13.0 mph 20.0 mph 74 % 0.00 in 359 W/m2
12:34 46.9 °F 39.1 °F 29.61 in SW 9.0 mph 14.0 mph 74 % 0.00 in 243 W/m2
12:39 46.8 °F 39.3 °F 29.61 in SW 10.0 mph 20.0 mph 75 % 0.00 in 239 W/m2
12:44 46.8 °F 39.3 °F 29.61 in SSW 13.0 mph 22.0 mph 75 % 0.00 in 466 W/m2
12:49 46.8 °F 38.9 °F 29.61 in SSW 10.0 mph 14.0 mph 74 % 0.00 in 204 W/m2
12:54 46.8 °F 39.3 °F 29.60 in SW 8.0 mph 13.0 mph 75 % 0.00 in 160 W/m2
12:59 46.8 °F 38.9 °F 29.60 in SW 9.0 mph 15.0 mph 74 % 0.00 in 97 W/m2
13:04 46.6 °F 38.7 °F 29.60 in SSW 6.0 mph 9.0 mph 74 % 0.00 in 77 W/m2
13:09 46.6 °F 39.1 °F 29.60 in SSW 8.0 mph 13.0 mph 75 % 0.00 in 91 W/m2
13:14 46.4 °F 38.6 °F 29.60 in SSW 8.0 mph 12.0 mph 74 % 0.00 in 107 W/m2
13:19 46.4 °F 38.9 °F 29.60 in South 7.0 mph 12.0 mph 75 % 0.00 in 113 W/m2
13:24 46.4 °F 38.9 °F 29.59 in SSW 7.0 mph 12.0 mph 75 % 0.00 in 90 W/m2
13:29 46.4 °F 38.9 °F 29.59 in SSW 9.0 mph 14.0 mph 75 % 0.00 in 56 W/m2
13:34 46.4 °F 38.9 °F 29.60 in SW 9.0 mph 16.0 mph 75 % 0.00 in 67 W/m2
13:39 46.2 °F 38.7 °F 29.59 in SSW 12.0 mph 20.0 mph 75 % 0.00 in 63 W/m2
13:44 46.2 °F 38.7 °F 29.59 in SSW 8.0 mph 14.0 mph 75 % 0.00 in 74 W/m2
13:49 46.0 °F 38.6 °F 29.59 in SW 9.0 mph 13.0 mph 75 % 0.00 in 67 W/m2
13:54 46.2 °F 39.1 °F 29.59 in SSW 5.0 mph 9.0 mph 76 % 0.00 in 76 W/m2
13:59 46.2 °F 39.1 °F 29.59 in SW 8.0 mph 15.0 mph 76 % 0.00 in 69 W/m2
14:04 46.2 °F 39.1 °F 29.59 in South 10.0 mph 18.0 mph 76 % 0.00 in 109 W/m2
14:09 46.2 °F 38.4 °F 29.58 in SW 13.0 mph 20.0 mph 74 % 0.00 in 244 W/m2
14:14 46.4 °F 38.9 °F 29.58 in SW 9.0 mph 13.0 mph 75 % 0.00 in 144 W/m2
14:19 46.6 °F 38.7 °F 29.58 in SSW 10.0 mph 16.0 mph 74 % 0.00 in 148 W/m2
14:24 46.6 °F 38.7 °F 29.58 in SSW 8.0 mph 12.0 mph 74 % 0.00 in 121 W/m2
14:29 46.6 °F 38.4 °F 29.57 in South 18.0 mph 27.0 mph 73 % 0.00 in 98 W/m2
14:34 46.6 °F 38.4 °F 29.57 in South 13.0 mph 20.0 mph 73 % 0.00 in 56 W/m2
14:39 46.2 °F 38.4 °F 29.57 in SSW 8.0 mph 14.0 mph 74 % 0.00 in 56 W/m2
14:45 46.0 °F 38.6 °F 29.58 in SSW 8.0 mph 12.0 mph 75 % 0.00 in 56 W/m2
14:49 45.9 °F 38.4 °F 29.58 in SW 11.0 mph 18.0 mph 75 % 0.00 in 46 W/m2
14:54 45.9 °F 38.7 °F 29.58 in SSW 7.0 mph 11.0 mph 76 % 0.00 in 51 W/m2
15:00 45.7 °F 38.5 °F 29.58 in SW 9.0 mph 14.0 mph 76 % 0.00 in 58 W/m2
15:05 45.7 °F 38.5 °F 29.58 in South 10.0 mph 15.0 mph 76 % 0.00 in 70 W/m2
15:10 45.7 °F 38.9 °F 29.58 in South 9.0 mph 13.0 mph 77 % 0.00 in 120 W/m2
15:15 45.7 °F 38.9 °F 29.58 in South 7.0 mph 12.0 mph 77 % 0.00 in 88 W/m2
15:20 45.7 °F 38.9 °F 29.58 in SSW 9.0 mph 14.0 mph 77 % 0.00 in 47 W/m2
15:25 45.7 °F 38.9 °F 29.58 in South 10.0 mph 15.0 mph 77 % 0.00 in 32 W/m2
15:30 45.7 °F 38.9 °F 29.58 in SSW 8.0 mph 18.0 mph 77 % 0.00 in 16 W/m2
15:35 45.7 °F 39.2 °F 29.59 in SW 9.0 mph 15.0 mph 78 % 0.00 in 21 W/m2
15:40 45.3 °F 39.2 °F 29.59 in SW 14.0 mph 26.0 mph 79 % 0.00 in 63 W/m2
15:45 45.0 °F 39.5 °F 29.59 in SSW 12.0 mph 23.0 mph 81 % 0.00 in 49 W/m2
15:50 44.4 °F 39.6 °F 29.59 in SW 10.0 mph 16.0 mph 83 % 0.00 in 40 W/m2
15:55 44.1 °F 39.2 °F 29.59 in SW 11.0 mph 14.0 mph 83 % 0.00 in 42 W/m2
16:00 43.9 °F 39.1 °F 29.58 in SW 8.0 mph 10.0 mph 83 % 0.00 in 39 W/m2
16:05 43.7 °F 39.2 °F 29.59 in SSW 9.0 mph 14.0 mph 84 % 0.00 in 30 W/m2
16:10 43.5 °F 39.0 °F 29.59 in SSW 8.0 mph 13.0 mph 84 % 0.00 in 16 W/m2
16:15 43.3 °F 38.8 °F 29.59 in SSW 11.0 mph 15.0 mph 84 % 0.00 in 7 W/m2
16:20 43.3 °F 38.8 °F 29.59 in SSW 10.0 mph 15.0 mph 84 % 0.00 in 7 W/m2
16:25 43.2 °F 38.7 °F 29.59 in SSW 11.0 mph 19.0 mph 84 % 0.00 in 5 W/m2
16:30 43.0 °F 38.5 °F 29.59 in SW 11.0 mph 15.0 mph 84 % 0.00 in 5 W/m2
16:35 43.0 °F 38.5 °F 29.58 in SSW 12.0 mph 19.0 mph 84 % 0.00 in 0 W/m2
16:40 42.8 °F 38.6 °F 29.58 in SSW 10.0 mph 16.0 mph 85 % 0.00 in 0 W/m2
16:45 42.6 °F 38.4 °F 29.58 in SSW 9.0 mph 14.0 mph 85 % 0.00 in 0 W/m2
16:50 42.6 °F 38.7 °F 29.58 in SSW 8.0 mph 13.0 mph 86 % 0.00 in 0 W/m2
16:55 42.4 °F 38.5 °F 29.58 in SW 6.0 mph 9.0 mph 86 % 0.00 in 0 W/m2
17:00 42.4 °F 38.5 °F 29.59 in SW 6.0 mph 9.0 mph 86 % 0.00 in 0 W/m2
17:05 42.4 °F 38.8 °F 29.59 in SSW 6.0 mph 9.0 mph 87 % 0.00 in 0 W/m2
17:10 42.4 °F 38.8 °F 29.59 in SW 4.0 mph 9.0 mph 87 % 0.00 in 0 W/m2
17:14 42.4 °F 39.1 °F 29.59 in SW 5.0 mph 9.0 mph 88 % 0.00 in 0 W/m2
17:19 42.4 °F 39.1 °F 29.60 in South 2.0 mph 5.0 mph 88 % 0.00 in 0 W/m2
17:24 42.4 °F 39.1 °F 29.60 in SW 4.0 mph 8.0 mph 88 % 0.00 in 0 W/m2
17:29 42.6 °F 39.3 °F 29.60 in SW 2.0 mph 5.0 mph 88 % 0.00 in 0 W/m2
17:34 42.6 °F 39.3 °F 29.60 in SSW 4.0 mph 8.0 mph 88 % 0.00 in 0 W/m2
17:39 42.6 °F 39.3 °F 29.60 in SSW 4.0 mph 8.0 mph 88 % 0.00 in 0 W/m2
17:44 42.8 °F 39.5 °F 29.60 in SSW 6.0 mph 9.0 mph 88 % 0.00 in 0 W/m2
17:49 42.8 °F 39.5 °F 29.61 in SW 5.0 mph 8.0 mph 88 % 0.00 in 0 W/m2
17:54 42.8 °F 39.2 °F 29.61 in WSW 1.0 mph 4.0 mph 87 % 0.00 in 0 W/m2
17:59 42.8 °F 39.2 °F 29.61 in WSW 2.0 mph 6.0 mph 87 % 0.00 in 0 W/m2
18:04 43.0 °F 39.4 °F 29.62 in SW 2.0 mph 5.0 mph 87 % 0.00 in 0 W/m2
18:09 43.0 °F 39.4 °F 29.62 in SW 3.0 mph 7.0 mph 87 % 0.00 in 0 W/m2
18:14 43.0 °F 39.4 °F 29.62 in SW 5.0 mph 7.0 mph 87 % 0.00 in 0 W/m2
18:19 43.0 °F 39.4 °F 29.62 in SW 2.0 mph 5.0 mph 87 % 0.00 in 0 W/m2
18:24 42.8 °F 39.2 °F 29.62 in SW 2.0 mph 5.0 mph 87 % 0.00 in 0 W/m2
18:29 42.8 °F 39.2 °F 29.62 in Calm   3.0 mph 87 % 0.00 in 0 W/m2
18:34 42.6 °F 39.0 °F 29.62 in SSW 2.0 mph 5.0 mph 87 % 0.00 in 0 W/m2
18:39 42.4 °F 38.8 °F 29.63 in Calm   2.0 mph 87 % 0.00 in 0 W/m2
18:44 42.4 °F 38.5 °F 29.64 in Calm   3.0 mph 86 % 0.00 in 0 W/m2
18:49 42.3 °F 38.7 °F 29.64 in SW 1.0 mph 4.0 mph 87 % 0.00 in 0 W/m2
18:54 42.3 °F 38.7 °F 29.64 in SSE 4.0 mph 5.0 mph 87 % 0.00 in 0 W/m2
18:59 42.3 °F 38.7 °F 29.64 in SSE 6.0 mph 8.0 mph 87 % 0.00 in 0 W/m2
19:04 42.3 °F 38.7 °F 29.64 in SE 4.0 mph 6.0 mph 87 % 0.00 in 0 W/m2
19:09 42.3 °F 38.7 °F 29.64 in SSE 5.0 mph 8.0 mph 87 % 0.00 in 0 W/m2
19:14 42.3 °F 38.7 °F 29.64 in SSE 7.0 mph 10.0 mph 87 % 0.00 in 0 W/m2
19:19 42.3 °F 38.7 °F 29.64 in South 5.0 mph 8.0 mph 87 % 0.00 in 0 W/m2
19:24 42.3 °F 38.7 °F 29.65 in South 6.0 mph 9.0 mph 87 % 0.00 in 0 W/m2
19:30 42.3 °F 38.7 °F 29.65 in South 6.0 mph 10.0 mph 87 % 0.00 in 0 W/m2
19:34 42.3 °F 38.7 °F 29.65 in SSW 6.0 mph 10.0 mph 87 % 0.00 in 0 W/m2
19:40 42.3 °F 38.7 °F 29.65 in SSW 4.0 mph 7.0 mph 87 % 0.00 in 0 W/m2
19:45 42.3 °F 38.7 °F 29.66 in SSW 4.0 mph 7.0 mph 87 % 0.00 in 0 W/m2
19:50 42.1 °F 38.5 °F 29.66 in SSW 4.0 mph 10.0 mph 87 % 0.00 in 0 W/m2
19:55 42.1 °F 38.5 °F 29.66 in SW 5.0 mph 9.0 mph 87 % 0.00 in 0 W/m2
20:00 41.9 °F 38.3 °F 29.66 in SW 6.0 mph 8.0 mph 87 % 0.00 in 0 W/m2
20:05 41.7 °F 38.1 °F 29.66 in SSW 4.0 mph 6.0 mph 87 % 0.00 in 0 W/m2
20:10 41.5 °F 38.0 °F 29.66 in SW 5.0 mph 8.0 mph 87 % 0.00 in 0 W/m2
20:15 41.5 °F 38.3 °F 29.66 in SW 2.0 mph 5.0 mph 88 % 0.00 in 0 W/m2
20:20 41.4 °F 38.1 °F 29.66 in SW 2.0 mph 4.0 mph 88 % 0.00 in 0 W/m2
20:25 41.2 °F 37.9 °F 29.66 in SW 4.0 mph 6.0 mph 88 % 0.00 in 0 W/m2
20:30 41.2 °F 37.9 °F 29.66 in WSW 2.0 mph 5.0 mph 88 % 0.00 in 0 W/m2
20:35 40.8 °F 37.5 °F 29.67 in SW 4.0 mph 8.0 mph 88 % 0.00 in 0 W/m2
20:40 40.8 °F 37.5 °F 29.66 in Calm   1.0 mph 88 % 0.00 in 0 W/m2
20:45 40.6 °F 37.4 °F 29.67 in Calm     88 % 0.00 in 0 W/m2
20:50 40.5 °F 37.2 °F 29.67 in Calm   2.0 mph 88 % 0.00 in 0 W/m2
20:55 40.1 °F 36.8 °F 29.67 in SW 1.0 mph 3.0 mph 88 % 0.00 in 0 W/m2
21:00 39.9 °F 36.9 °F 29.67 in SW 1.0 mph 2.0 mph 89 % 0.00 in 0 W/m2
21:05 39.7 °F 36.8 °F 29.67 in Calm   1.0 mph 89 % 0.00 in 0 W/m2
21:10 39.6 °F 36.6 °F 29.68 in Calm     89 % 0.00 in 0 W/m2
21:15 39.2 °F 36.2 °F 29.68 in Calm   3.0 mph 89 % 0.00 in 0 W/m2
21:20 39.0 °F 36.3 °F 29.68 in SSW 1.0 mph 2.0 mph 90 % 0.00 in 0 W/m2
21:25 38.8 °F 36.2 °F 29.68 in Calm   1.0 mph 90 % 0.00 in 0 W/m2
21:30 38.8 °F 36.2 °F 29.68 in Calm     90 % 0.00 in 0 W/m2
21:35 38.7 °F 36.0 °F 29.68 in Calm   1.0 mph 90 % 0.00 in 0 W/m2
21:40 38.5 °F 35.8 °F 29.69 in Calm   2.0 mph 90 % 0.00 in 0 W/m2
21:45 38.5 °F 36.1 °F 29.69 in Calm     91 % 0.00 in 0 W/m2
21:50 38.1 °F 35.7 °F 29.69 in Calm     91 % 0.00 in 0 W/m2
21:55 38.1 °F 35.7 °F 29.70 in Calm     91 % 0.00 in 0 W/m2
22:00 37.9 °F 35.5 °F 29.70 in Calm     91 % 0.00 in 0 W/m2
22:05 37.9 °F 35.5 °F 29.71 in Calm     91 % 0.00 in 0 W/m2
22:11 37.9 °F 35.8 °F 29.71 in Calm     92 % 0.00 in 0 W/m2
22:16 38.1 °F 36.0 °F 29.71 in Calm     92 % 0.00 in 0 W/m2
22:21 38.1 °F 36.0 °F 29.71 in SSW 1.0 mph 4.0 mph 92 % 0.00 in 0 W/m2
22:26 38.5 °F 36.6 °F 29.71 in Calm   1.0 mph 93 % 0.00 in 0 W/m2
22:31 38.5 °F 36.4 °F 29.71 in Calm     92 % 0.00 in 0 W/m2
22:36 38.1 °F 36.0 °F 29.72 in Calm     92 % 0.00 in 0 W/m2
22:41 37.9 °F 35.8 °F 29.72 in Calm     92 % 0.00 in 0 W/m2
22:46 37.8 °F 35.6 °F 29.72 in Calm     92 % 0.00 in 0 W/m2
22:51 37.8 °F 35.6 °F 29.72 in Calm     92 % 0.00 in 0 W/m2
22:54 37.6 °F 35.5 °F 29.72 in Calm     92 % 0.00 in 0 W/m2
22:59 37.2 °F 35.1 °F 29.72 in Calm     92 % 0.00 in 0 W/m2
23:04 37.2 °F 35.1 °F 29.73 in Calm     92 % 0.00 in 0 W/m2
23:09 37.0 °F 34.9 °F 29.73 in Calm     92 % 0.00 in 0 W/m2
23:14 37.0 °F 35.2 °F 29.73 in Calm     93 % 0.00 in 0 W/m2
23:19 36.9 °F 34.8 °F 29.73 in Calm     92 % 0.00 in 0 W/m2
23:24 36.7 °F 34.6 °F 29.74 in Calm     92 % 0.00 in 0 W/m2
23:29 36.3 °F 34.5 °F 29.74 in Calm     93 % 0.00 in 0 W/m2
23:34 36.3 °F 34.5 °F 29.74 in Calm     93 % 0.00 in 0 W/m2
23:39 36.0 °F 34.1 °F 29.74 in Calm   2.0 mph 93 % 0.00 in 0 W/m2
23:44 36.0 °F 34.1 °F 29.75 in NNW 1.0 mph 4.0 mph 93 % 0.00 in 0 W/m2
23:49 36.0 °F 34.1 °F 29.75 in Calm   1.0 mph 93 % 0.00 in 0 W/m2
23:54 35.8 °F 34.0 °F 29.75 in Calm     93 % 0.00 in 0 W/m2
23:59 35.2 °F 33.1 °F 29.75 in Calm     92 % 0.00 in 0 W/m2
Delerius-Weather
Compliments of Weather Underground - 2.25 mb

Data updates at regular intervals.